Record high temperature 44.9°C Record low temperature -0.3°C Record high gust 87.3 km/h Record high average 77.7 km/h Record daily rain 484.8 mm Record low windchill -5.8°C Record high barometer 1043.6 hPa Record low barometer 978.0 hPa
Daily high pressure 1011.7 mb Daily low pressure 1010.8 mb Daily low windchill 23.8°C Daily high heat index 24.9°C Daily high gust speed 15.5 kmh NE Daily high average speed 10.4 kmh NE
Estación de MeteoMurcia.com -------- Murcia-Puente Tocinos
Ultima grabación a: 04:40 Data: 22 July 2018, time of next update: 04:50
Tiempo actualmostly cloudy/Night Temperatura actual23.8°C (74.8°F) (Indice de Calor23.8°C ), Temperatura aparente 27.2°C
Temperatura máxima (desde medianoche)24.9°C at: 00:00 Temperatura mínima (desde medianoche)23.8°C at: 03:54
Velocidad media del viento (diez minutos)1.1 kmh (0.6 kts) Dirección del viento (diez minutos)NNE (22°)
Indice de Calor23.8°C ráfagas maxima (última hora)7.6 kmh (4.1 kts) at: 03:42
ráfagas maxima (desde medianoche)15.5 kmh (8.4 kts) at: 00:02 Maximo media de un minuto (desde medianoche)10.4 kmh (5.6 kts) at: 00:00
Lluvia (última hora)0.0 mm Lluvia (desde medianoche)0.0 mm (0.00 in.)---
Lluvia Este mes 0.0 mm (0.00 in.) Lluvia Hasta la fecha este año138.9 mm (5.47 in.)
Lluvia máxima por minuto (última hora)0.0 mm/min Lluvia maxima por hora (últimas 6 horas)0.0 mm/hora
Lluvia de ayer 0.0 mm Punto de rocío 21.5°C (Wet Bulb :22.3°C )
Humedad 87 %, Humidex 32.7°C Barómetro corregido a msl1011.1 mb
cambio de presión0.1 mb (última hora) Tendencia (últimas 1 hora)ESTACIONARIO
cambio de presión (últimas 12 horas)+0.9 mb cambio de presión (últimas 6 horas)+0.6 mb
Current Temp. Interna 30.5°C
Current Hum. Interna 52%


Última imagen cámara web


Weather report/warning/Metars

Alicante / El Altet, Spain (LEAL) 38-17N 000-33W 31M
Jul 21, 2018 - 10:00 PM EDT / 2018.07.22 0200 UTC
Wind: from the ENE (070 degrees) at 7 MPH (6 KT):0
Visibility: greater than 7 mile(s):0
Sky conditions: mostly cloudy
Temperature: 77 F (25 C)
Dew Point: 71 F (22 C)
Relative Humidity: 83%
Pressure (altimeter): 29.88 in. Hg (1012 hPa)
ob: LEAL 220200Z 07006KT 9999 FEW012 BKN025 25/22 Q1012 NOSIG
cycle: 2
Murcia / San Javier, Spain (LELC) 37-47N 000-48W 3M
Jul 21, 2018 - 10:00 PM EDT / 2018.07.22 0200 UTC
Wind: from the ENE (060 degrees) at 8 MPH (7 KT) (direction variable):0
Visibility: 5 mile(s):0
Sky conditions: partly cloudy
Temperature: 77 F (25 C)
Dew Point: 71 F (22 C)
Relative Humidity: 83%
Pressure (altimeter): 29.88 in. Hg (1012 hPa)
ob: LELC 220200Z AUTO 06007KT 030V110 9000 SCT014/// SCT021/// 25/22 Q1012
cycle: 2
Murcia / Alcantarilla, Spain (LERI) 37-57N 001-14W 75M
Jul 21, 2018 - 02:00 PM EDT / 2018.07.21 1800 UTC
Wind: from the SE (130 degrees) at 14 MPH (12 KT) (direction variable):0
Visibility: greater than 7 mile(s):0
Temperature: 87 F (31 C)
Dew Point: 64 F (18 C)
Relative Humidity: 45%
Pressure (altimeter): 29.85 in. Hg (1011 hPa)
ob: LERI 211800Z 13012KT 110V170 CAVOK 31/18 Q1011 NOSIG
cycle: 18
Gerona / Costa Brava, Spain (LEGE) 41-54N 002-46E 129M
Jul 21, 2018 - 10:00 PM EDT / 2018.07.22 0200 UTC
Wind: Calm:0
Visibility: greater than 7 mile(s):0
Sky conditions: mostly clear
Temperature: 66 F (19 C)
Dew Point: 64 F (18 C)
Relative Humidity: 93%
Pressure (altimeter): 29.97 in. Hg (1015 hPa)
ob: LEGE 220200Z 00000KT 9999 FEW028 19/18 Q1015
cycle: 2
Madri-Colmenar, Spain (LECV) 40-39N 003-44W
Jul 21, 2018 - 02:00 PM EDT / 2018.07.21 1800 UTC
Wind: from the NE (040 degrees) at 8 MPH (7 KT):0
Visibility: greater than 7 mile(s):0
Sky conditions: mostly clear
Temperature: 75 F (24 C)
Dew Point: 46 F (8 C)
Relative Humidity: 35%
Pressure (altimeter): 30.00 in. Hg (1016 hPa)
ob: LECV 211800Z 04007KT 9999 FEW060 24/08 Q1016
cycle: 18
Asturias / Aviles, Spain (LEAS) 43-33N 006-02W 130M
Jul 21, 2018 - 10:00 PM EDT / 2018.07.22 0200 UTC
Wind: from the WSW (240 degrees) at 5 MPH (4 KT):0
Visibility: 3 mile(s):0
Sky conditions: overcast
Weather: mist
Temperature: 62 F (17 C)
Dew Point: 62 F (17 C)
Relative Humidity: 100%
Pressure (altimeter): 30.03 in. Hg (1017 hPa)
ob: LEAS 220200Z AUTO 24004KT 5000 BR FEW025/// BKN034/// OVC060/// 17/17 Q1017
cycle: 2
Almeria / Aeropuerto, Spain (LEAM) 36-51N 002-23W 21M
Jul 21, 2018 - 10:00 PM EDT / 2018.07.22 0200 UTC
Wind: from the WSW (250 degrees) at 3 MPH (3 KT):0
Visibility: greater than 7 mile(s):0
Temperature: 71 F (22 C)
Dew Point: 69 F (21 C)
Relative Humidity: 94%
Pressure (altimeter): 29.88 in. Hg (1012 hPa)
ob: LEAM 220200Z AUTO 25003KT CAVOK 22/21 Q1012
cycle: 2
Pamplona / Noain, Spain (LEPP) 42-46N 001-38W 453M
Jul 21, 2018 - 10:00 PM EDT / 2018.07.22 0200 UTC
Wind: Variable at 1 MPH (1 KT):0
Visibility: 5 mile(s):0
Temperature: 59 F (15 C)
Dew Point: 53 F (12 C)
Relative Humidity: 82%
Pressure (altimeter): 30.03 in. Hg (1017 hPa)
ob: LEPP 220200Z AUTO VRB01KT 9000 NSC 15/12 Q1017
cycle: 2
Badajoz / Talavera La Real, Spain (LEBZ) 38-53N 006-49W 192M
Jul 21, 2018 - 03:00 PM EDT / 2018.07.21 1900 UTC
Wind: from the W (270 degrees) at 9 MPH (8 KT):0
Visibility: greater than 7 mile(s):0
Temperature: 87 F (31 C)
Dew Point: 50 F (10 C)
Relative Humidity: 27%
Pressure (altimeter): 29.88 in. Hg (1012 hPa)
ob: LEBZ 211900Z 27008KT CAVOK 31/10 Q1012
cycle: 19
Albacete / Los Llanos, Spain (LEAB) 38-57N 001-51W 704M
Jul 21, 2018 - 10:00 PM EDT / 2018.07.22 0200 UTC
Wind: from the SE (140 degrees) at 7 MPH (6 KT) (direction variable):0
Visibility: greater than 7 mile(s):0
Temperature: 68 F (20 C)
Dew Point: 64 F (18 C)
Relative Humidity: 88%
Pressure (altimeter): 29.97 in. Hg (1015 hPa)
ob: LEAB 220200Z 14006KT 110V170 CAVOK 20/18 Q1015 NOSIG
cycle: 2



La informacion se graba a intervalos de 2 minutos, pero hay info grabada cada minuto. Optimizado para 800*600 y Color verdadero. Use el boton de

Use the RECARGA en su navegador para recojer la ulima info.

Clicar aquí para regarga diaria de medias/extremas del mes














Created by "Weather Display" software version 10.37S at this start time/date 19:40:03 28/06/2018

La estación de MeteoMurcia.com, publica sus datos en los siguientes proyectos:

Meteoclimatic www.awekas.at

W3Counter
Web Analytics